Destinations Linz Hörsching Airport

Linz Hörsching Airport (LOWL / LNZ)

Flights to Linz Hörsching Airport

Flight number From ETE Dispatch
SPY-118 EHGG Groningen Airport Eelde 01:40

Flights from Linz Hörsching Airport

Flight number To ETE Dispatch
SPY-119 EHGG Groningen Airport Eelde
About

Linz Hörsching Airport facts

Linz Hörsching Airport is located in Linz at an elevation of 298.7 meters or 980 feet.

Currently, Speedy Airlines serves 2 flights to and from Linz Hörsching Airport.

Detailed airport info

Route map

Weather

Current weather

METAR

METAR

Metar data retrieved Sunday, 21 July 2024 at 19:25 UTC

LOWL 211850Z AUTO 08004KT 9999 NCD 26/15 Q1009 BECMG 27011KT
Wind Temperature
4 kt 26c